EET - Shelby County

Pirep is a free, collaborative database of all public and private airports located within the United States. All pilots are welcome to contribute, edit, and improve any airport they have local knowledge about, no registration required.
Are you familiar with this airport? Help out other pilots by adding your local knowledge.
Uploaded photos will be licensed under a CC BY-SA 4.0 license. Please only upload photos you have the rights to use.
Tags
Public
Undocu­mented
METAR / TAF
Edit Tags
Food
Camping
Lodging
Car Rental
Bicycles
Swimming
Golfing
Fishing
Hot Springs
Museum
Flying Clubs
Airpark
Upcoming Events
No upcoming events. Is anything happening here soon?
*
*
*

Where exactly on/near the airport is this event taking place?

Is there a webpage with more information for this event?

Who should be contacted for more information?

What is this event all about?

Repeat every
Description
Transient Parking
Fuel Location
Landing & Tie-down Fees
Crew Car Availability
Flying Clubs
WiFi Access
Airport Statistics
Location: Alabaster, AL
Elevation: 585ft
Sectional: Atlanta
Activation date: Apr 1965
Fuel: 100LL, A+ (prices)
Runway 16/34: 5,000ft
Access: Open to the public
Current Weather — VFR
  • Weather data is strictly informational and not for flight planning purposes.
  • METAR
    2024-04-24 08:53:00 CDT
    Ceiling Wind Temperature Dewpoint Weather Visbility
    6,500ft 240° @ 3kt 60°F 55°F N/A 10SM
    Clouds: Overcast @ 6,500ft
    Raw: KEET 241353Z AUTO 24003KT 10SM OVC065 16/13 A3015 RMK AO2 SLP205 T01560133
  • TAF
    2024-04-24 07:00:00 CDT – 2024-04-24 16:00:00 CDT
    Ceiling Wind Weather Visbility
    7,000ft 210° @ 7kt N/A 6SM
    Clouds: Broken @ 7,000ft
    Raw: KEET 241120Z 2412/2512 21007KT P6SM BKN070 FM242100 27008KT P6SM VCSH SCT035 BKN050 FM250200 00000KT P6SM SCT090
  • TAF
    2024-04-24 16:00:00 CDT – 2024-04-24 21:00:00 CDT
    Ceiling Wind Weather Visbility
    5,000ft 270° @ 8kt Showers in vicinity 6SM
    Clouds: Scattered @ 3,500ft, Broken @ 5,000ft
    Raw: KEET 241120Z 2412/2512 21007KT P6SM BKN070 FM242100 27008KT P6SM VCSH SCT035 BKN050 FM250200 00000KT P6SM SCT090
  • TAF
    2024-04-24 21:00:00 CDT – 2024-04-25 07:00:00 CDT
    Ceiling Wind Weather Visbility
    Sky clear Calm N/A 6SM
    Clouds: Scattered @ 9,000ft
    Raw: KEET 241120Z 2412/2512 21007KT P6SM BKN070 FM242100 27008KT P6SM VCSH SCT035 BKN050 FM250200 00000KT P6SM SCT090
Click/tap to add an annotation marker to the map
Airport Webcams
No webcams added yet.
Direct links to live image URLs will be displayed inline on this page. URLs to separate webpages will be linked to.
URL:
Direct links to live image URLs will be displayed inline on this page. URLs to separate webpages will be linked to.
URL:
Remarks
  • Noise abatement area nw of arpt.
  • Balloon ops, hang gliding, paja, and motorized parachute ops prohibited.
  • Gco avbl on freq 121.725 thru bhm clearance delivery.
  • For cd if una via gco ctc birmingham apch at 205-769-3890.
  • Actvt reil rwy 16 & 34; papi rwy 16 & 34; mirl rwy 16/34 - ctaf
  • Chad scroggins, county manager
  • 100ll avbl 24/7 with cc.
Comments
Leave a comment What was your experience like at this airport?